createdAt,value
2023-03-22T00:04:43.404Z,10.45
2023-03-22T00:09:46.360Z,11.98
2023-03-22T00:14:50.234Z,11.27
2023-03-22T00:19:54.736Z,10.45
2023-03-22T00:24:58.144Z,9.10
2023-03-22T00:30:01.661Z,10.95
2023-03-22T00:35:06.387Z,10.07
2023-03-22T00:40:12.670Z,8.63
2023-03-22T00:45:15.741Z,9.35
2023-03-22T00:50:19.046Z,9.30
2023-03-22T00:55:22.531Z,8.65
2023-03-22T01:00:25.609Z,8.93
2023-03-22T01:05:28.810Z,9.30
2023-03-22T01:10:31.977Z,8.38
2023-03-22T01:15:34.746Z,9.07
2023-03-22T01:20:38.500Z,9.73
2023-03-22T01:25:42.170Z,10.05
2023-03-22T01:30:45.506Z,11.38
2023-03-22T01:35:48.721Z,9.02
2023-03-22T01:40:52.938Z,8.93
2023-03-22T01:45:56.366Z,9.15
2023-03-22T01:51:09.091Z,10.43
2023-03-22T01:56:44.052Z,9.10
2023-03-22T02:01:54.812Z,10.52
2023-03-22T02:06:59.310Z,11.25
2023-03-22T02:12:17.693Z,10.45
2023-03-22T02:17:45.480Z,10.45
2023-03-22T02:22:58.665Z,10.90
2023-03-22T02:28:35.438Z,13.30
2023-03-22T02:39:14.403Z,12.00
2023-03-22T02:44:22.797Z,12.27
2023-03-22T02:49:35.062Z,11.23
2023-03-22T02:54:57.024Z,12.55
2023-03-22T03:00:01.634Z,10.00
2023-03-22T03:05:06.839Z,8.18
2023-03-22T03:10:15.009Z,9.13
2023-03-22T03:15:22.527Z,8.82
2023-03-22T03:20:47.341Z,7.95
2023-03-22T03:26:06.769Z,9.20
2023-03-22T03:31:27.425Z,8.05
2023-03-22T03:36:35.511Z,8.63
2023-03-22T03:41:43.012Z,9.43
2023-03-22T03:46:47.013Z,8.52
2023-03-22T03:51:54.301Z,9.45
2023-03-22T03:56:57.146Z,10.55
2023-03-22T04:02:00.652Z,9.10
2023-03-22T04:07:07.457Z,10.30
2023-03-22T04:12:12.807Z,9.55
2023-03-22T04:17:16.451Z,10.02
2023-03-22T04:22:20.520Z,9.95
2023-03-22T04:27:23.495Z,10.73
2023-03-22T04:32:32.566Z,8.60
2023-03-22T04:37:35.336Z,8.88
2023-03-22T04:42:58.277Z,8.88
2023-03-22T04:48:20.769Z,12.32
2023-03-22T04:53:28.171Z,10.15
2023-03-22T04:58:42.842Z,10.63
2023-03-22T05:03:47.706Z,11.35
2023-03-22T05:08:56.812Z,10.35
2023-03-22T05:14:01.365Z,9.70
2023-03-22T05:19:06.878Z,10.23
2023-03-22T05:24:12.414Z,14.43
2023-03-22T05:29:17.875Z,9.80
2023-03-22T05:34:36.555Z,10.63
2023-03-22T05:39:55.208Z,11.88
2023-03-22T05:45:07.158Z,12.05
2023-03-22T05:50:15.759Z,10.65
2023-03-22T05:55:19.276Z,13.18
2023-03-22T06:00:26.259Z,10.75
2023-03-22T06:06:11.034Z,11.30
2023-03-22T06:11:21.513Z,12.30
2023-03-22T06:16:25.745Z,11.30
2023-03-22T06:21:28.862Z,13.15
2023-03-22T06:26:32.233Z,13.95
2023-03-22T06:31:35.735Z,16.55
2023-03-22T06:36:47.720Z,16.10
2023-03-22T06:42:09.826Z,19.23
2023-03-22T06:47:14.858Z,20.92
2023-03-22T06:52:39.916Z,21.40
2023-03-22T06:57:49.905Z,22.25
2023-03-22T07:03:11.754Z,19.17
2023-03-22T07:08:23.341Z,19.70
2023-03-22T07:13:29.112Z,19.60
2023-03-22T07:18:44.198Z,12.77
2023-03-22T07:23:48.638Z,13.98
2023-03-22T07:28:54.948Z,19.08
2023-03-22T07:34:07.308Z,19.10
2023-03-22T07:39:26.045Z,15.45
2023-03-22T07:44:30.539Z,13.30
2023-03-22T07:49:53.946Z,15.73
2023-03-22T08:00:12.180Z,14.10
2023-03-22T08:05:53.874Z,15.77
2023-03-22T08:10:59.140Z,18.70
2023-03-22T08:16:02.089Z,13.45
2023-03-22T08:21:08.367Z,10.60
2023-03-22T08:26:13.848Z,11.48
2023-03-22T08:31:19.049Z,10.88
2023-03-22T08:36:23.514Z,11.63
2023-03-22T08:41:36.664Z,13.77
2023-03-22T08:46:43.338Z,12.30
2023-03-22T08:51:49.903Z,11.98
2023-03-22T08:57:05.672Z,12.65
2023-03-22T09:02:20.485Z,10.90
2023-03-22T09:07:24.609Z,11.95
2023-03-22T09:12:49.657Z,13.57
2023-03-22T09:17:57.278Z,13.50
2023-03-22T09:23:00.415Z,10.35
2023-03-22T09:28:04.419Z,9.10
2023-03-22T09:33:08.660Z,11.60
2023-03-22T09:38:14.538Z,10.10
2023-03-22T09:43:21.418Z,11.52
2023-03-22T09:48:36.156Z,11.20
2023-03-22T09:53:38.559Z,11.98
2023-03-22T09:59:06.278Z,11.90
2023-03-22T10:04:21.809Z,12.15
2023-03-22T10:09:57.194Z,12.15
2023-03-22T10:15:04.542Z,10.30
2023-03-22T10:20:18.942Z,10.15
2023-03-22T10:25:28.406Z,10.85
2023-03-22T10:30:39.017Z,10.55
2023-03-22T10:35:44.948Z,9.85
2023-03-22T10:40:51.116Z,9.75
2023-03-22T10:45:57.234Z,8.93
2023-03-22T10:51:04.558Z,10.23
2023-03-22T10:56:14.125Z,9.23
2023-03-22T11:01:33.567Z,8.40
2023-03-22T11:06:50.166Z,9.20
2023-03-22T11:17:10.924Z,7.28
2023-03-22T11:22:39.832Z,7.25
2023-03-22T11:27:57.961Z,7.18
2023-03-22T11:33:23.170Z,7.18
2023-03-22T11:38:32.638Z,6.88
2023-03-22T11:43:50.204Z,6.53
2023-03-22T11:49:01.316Z,7.97
2023-03-22T11:54:23.324Z,8.60
2023-03-22T11:59:32.872Z,7.53
2023-03-22T12:04:40.411Z,7.32
2023-03-22T12:10:09.194Z,9.63
2023-03-22T12:15:32.569Z,8.35
2023-03-22T12:21:01.144Z,5.90
2023-03-22T12:32:30.329Z,5.95
2023-03-22T12:37:43.436Z,5.07
2023-03-22T12:43:18.944Z,6.40
2023-03-22T12:49:05.417Z,4.85
2023-03-22T12:54:14.753Z,6.18
2023-03-22T12:59:26.029Z,5.95
2023-03-22T13:04:39.746Z,6.30
2023-03-22T13:09:50.039Z,6.07
2023-03-22T13:20:24.699Z,8.50
2023-03-22T13:25:32.133Z,6.70
2023-03-22T13:30:54.971Z,7.50
2023-03-22T13:36:29.722Z,7.80
2023-03-22T13:41:43.785Z,6.25
2023-03-22T13:47:34.774Z,5.68
2023-03-22T13:53:10.130Z,5.53
2023-03-22T13:58:33.338Z,10.00
2023-03-22T14:03:41.317Z,6.55
2023-03-22T14:08:47.511Z,5.90
2023-03-22T14:13:55.045Z,6.65
2023-03-22T14:18:58.296Z,6.38
